<?xml version="1.0" encoding="UTF-8" standalone="no" ?>
<gpx xmlns="http://www.topografix.com/GPX/1/1" xmlns:xsi="http://www.w3.org/2001/XMLSchema-instance" xsi:schemaLocation="http://www.topografix.com/GPX/1/1 http://www.topografix.com/GPX/1/1/gpx.xsd" version="1.1" creator="VisuGPX - https://www.visugpx.com">
  <metadata>
    <name>Saint-Julien-du-Gua : de l'Auzène à Intres, par le Serre des Fontettes</name>
  </metadata>
  <wpt lat="44.76818" lon="4.44525">
    <ele>664</ele>
    <name><![CDATA[Départ, parking place de l'Église]]></name>
  </wpt>
  <wpt lat="44.76668" lon="4.46377">
    <ele>773</ele>
    <name><![CDATA[Route à droite, orientation Sud-Ouest]]></name>
  </wpt>
  <wpt lat="44.76578" lon="4.4669">
    <ele>864</ele>
    <name><![CDATA[Crêtes : descendre Nord]]></name>
  </wpt>
  <wpt lat="44.76937" lon="4.46973">
    <ele>730</ele>
    <name><![CDATA[mât de Intres hameau, tout droit, route]]></name>
  </wpt>
  <wpt lat="44.77529" lon="4.48169">
    <ele>569</ele>
    <name><![CDATA[D244 La Pervenche, à gauche]]></name>
  </wpt>
  <wpt lat="44.7749" lon="4.47376">
    <ele>538</ele>
    <name><![CDATA[La Baraque, à droite]]></name>
  </wpt>
  <wpt lat="44.77082" lon="4.46745">
    <ele>706</ele>
    <name><![CDATA[mât de Intres Bas, en face, St Julien ]]></name>
  </wpt>
  <wpt lat="44.76903" lon="4.44986">
    <ele>619</ele>
    <name><![CDATA[ dans le virage, à droite]]></name>
  </wpt>
  <trk>
    <name><![CDATA[Saint-Julien-du-Gua : de l'Auzène à Intres, par le Serre des Fontettes]]></name>
    <trkseg>
      <trkpt lat="44.76818" lon="4.44525">
        <ele>664</ele>
        <time>2020-11-10T19:32:16+01:00</time>
      </trkpt>
      <trkpt lat="44.76825" lon="4.44526">
        <ele>664</ele>
        <time>2020-11-10T19:32:21+01:00</time>
      </trkpt>
      <trkpt lat="44.76827" lon="4.44502">
        <ele>667</ele>
        <time>2020-11-10T19:32:26+01:00</time>
      </trkpt>
      <trkpt lat="44.76827" lon="4.44492">
        <ele>669</ele>
        <time>2020-11-10T19:32:31+01:00</time>
      </trkpt>
      <trkpt lat="44.76822" lon="4.44482">
        <ele>669</ele>
        <time>2020-11-10T19:32:36+01:00</time>
      </trkpt>
      <trkpt lat="44.76819" lon="4.44473">
        <ele>670</ele>
        <time>2020-11-10T19:32:41+01:00</time>
      </trkpt>
      <trkpt lat="44.76804" lon="4.44475">
        <ele>670</ele>
        <time>2020-11-10T19:32:46+01:00</time>
      </trkpt>
      <trkpt lat="44.76794" lon="4.44475">
        <ele>670</ele>
        <time>2020-11-10T19:32:51+01:00</time>
      </trkpt>
      <trkpt lat="44.76795" lon="4.44485">
        <ele>669</ele>
        <time>2020-11-10T19:32:56+01:00</time>
      </trkpt>
      <trkpt lat="44.76793" lon="4.44497">
        <ele>667</ele>
        <time>2020-11-10T19:33:01+01:00</time>
      </trkpt>
      <trkpt lat="44.76792" lon="4.44508">
        <ele>665</ele>
        <time>2020-11-10T19:33:06+01:00</time>
      </trkpt>
      <trkpt lat="44.76781" lon="4.44501">
        <ele>665</ele>
        <time>2020-11-10T19:33:11+01:00</time>
      </trkpt>
      <trkpt lat="44.76773" lon="4.44494">
        <ele>666</ele>
        <time>2020-11-10T19:33:16+01:00</time>
      </trkpt>
      <trkpt lat="44.76771" lon="4.44496">
        <ele>666</ele>
        <time>2020-11-10T19:33:21+01:00</time>
      </trkpt>
      <trkpt lat="44.76766" lon="4.44506">
        <ele>664</ele>
        <time>2020-11-10T19:33:26+01:00</time>
      </trkpt>
      <trkpt lat="44.76749" lon="4.44495">
        <ele>665</ele>
        <time>2020-11-10T19:33:31+01:00</time>
      </trkpt>
      <trkpt lat="44.76736" lon="4.44486">
        <ele>667</ele>
        <time>2020-11-10T19:33:36+01:00</time>
      </trkpt>
      <trkpt lat="44.76723" lon="4.44478">
        <ele>669</ele>
        <time>2020-11-10T19:33:41+01:00</time>
      </trkpt>
      <trkpt lat="44.76714" lon="4.44473">
        <ele>671</ele>
        <time>2020-11-10T19:33:46+01:00</time>
      </trkpt>
      <trkpt lat="44.76697" lon="4.44477">
        <ele>670</ele>
        <time>2020-11-10T19:33:51+01:00</time>
      </trkpt>
      <trkpt lat="44.76686" lon="4.44476">
        <ele>670</ele>
        <time>2020-11-10T19:33:56+01:00</time>
      </trkpt>
      <trkpt lat="44.7668" lon="4.44476">
        <ele>670</ele>
        <time>2020-11-10T19:34:01+01:00</time>
      </trkpt>
      <trkpt lat="44.76672" lon="4.4448">
        <ele>668</ele>
        <time>2020-11-10T19:34:06+01:00</time>
      </trkpt>
      <trkpt lat="44.7667" lon="4.44489">
        <ele>665</ele>
        <time>2020-11-10T19:34:11+01:00</time>
      </trkpt>
      <trkpt lat="44.76674" lon="4.44506">
        <ele>662</ele>
        <time>2020-11-10T19:34:16+01:00</time>
      </trkpt>
      <trkpt lat="44.76685" lon="4.44516">
        <ele>663</ele>
        <time>2020-11-10T19:34:21+01:00</time>
      </trkpt>
      <trkpt lat="44.76694" lon="4.4453">
        <ele>662</ele>
        <time>2020-11-10T19:34:26+01:00</time>
      </trkpt>
      <trkpt lat="44.76696" lon="4.44543">
        <ele>662</ele>
        <time>2020-11-10T19:34:31+01:00</time>
      </trkpt>
      <trkpt lat="44.76703" lon="4.44553">
        <ele>661</ele>
        <time>2020-11-10T19:34:36+01:00</time>
      </trkpt>
      <trkpt lat="44.76706" lon="4.44562">
        <ele>661</ele>
        <time>2020-11-10T19:34:41+01:00</time>
      </trkpt>
      <trkpt lat="44.76705" lon="4.44581">
        <ele>660</ele>
        <time>2020-11-10T19:34:46+01:00</time>
      </trkpt>
      <trkpt lat="44.76701" lon="4.44593">
        <ele>661</ele>
        <time>2020-11-10T19:34:51+01:00</time>
      </trkpt>
      <trkpt lat="44.76694" lon="4.44613">
        <ele>664</ele>
        <time>2020-11-10T19:34:56+01:00</time>
      </trkpt>
      <trkpt lat="44.76692" lon="4.44649">
        <ele>668</ele>
        <time>2020-11-10T19:35:01+01:00</time>
      </trkpt>
      <trkpt lat="44.76688" lon="4.44683">
        <ele>673</ele>
        <time>2020-11-10T19:35:06+01:00</time>
      </trkpt>
      <trkpt lat="44.76688" lon="4.4472">
        <ele>678</ele>
        <time>2020-11-10T19:35:11+01:00</time>
      </trkpt>
      <trkpt lat="44.76687" lon="4.44729">
        <ele>680</ele>
        <time>2020-11-10T19:35:16+01:00</time>
      </trkpt>
      <trkpt lat="44.76689" lon="4.44745">
        <ele>681</ele>
        <time>2020-11-10T19:35:21+01:00</time>
      </trkpt>
      <trkpt lat="44.76688" lon="4.44766">
        <ele>683</ele>
        <time>2020-11-10T19:35:26+01:00</time>
      </trkpt>
      <trkpt lat="44.76683" lon="4.44784">
        <ele>685</ele>
        <time>2020-11-10T19:35:31+01:00</time>
      </trkpt>
      <trkpt lat="44.76669" lon="4.44811">
        <ele>690</ele>
        <time>2020-11-10T19:35:36+01:00</time>
      </trkpt>
      <trkpt lat="44.76664" lon="4.44828">
        <ele>692</ele>
        <time>2020-11-10T19:35:41+01:00</time>
      </trkpt>
      <trkpt lat="44.76653" lon="4.44842">
        <ele>696</ele>
        <time>2020-11-10T19:35:46+01:00</time>
      </trkpt>
      <trkpt lat="44.76653" lon="4.44864">
        <ele>697</ele>
        <time>2020-11-10T19:35:51+01:00</time>
      </trkpt>
      <trkpt lat="44.76667" lon="4.44882">
        <ele>693</ele>
        <time>2020-11-10T19:35:56+01:00</time>
      </trkpt>
      <trkpt lat="44.76675" lon="4.449">
        <ele>691</ele>
        <time>2020-11-10T19:36:01+01:00</time>
      </trkpt>
      <trkpt lat="44.76674" lon="4.44927">
        <ele>692</ele>
        <time>2020-11-10T19:36:06+01:00</time>
      </trkpt>
      <trkpt lat="44.76669" lon="4.44943">
        <ele>694</ele>
        <time>2020-11-10T19:36:11+01:00</time>
      </trkpt>
      <trkpt lat="44.76663" lon="4.44951">
        <ele>695</ele>
        <time>2020-11-10T19:36:16+01:00</time>
      </trkpt>
      <trkpt lat="44.76642" lon="4.44992">
        <ele>703</ele>
        <time>2020-11-10T19:36:21+01:00</time>
      </trkpt>
      <trkpt lat="44.76637" lon="4.45008">
        <ele>703</ele>
        <time>2020-11-10T19:36:26+01:00</time>
      </trkpt>
      <trkpt lat="44.76635" lon="4.45045">
        <ele>696</ele>
        <time>2020-11-10T19:36:31+01:00</time>
      </trkpt>
      <trkpt lat="44.76629" lon="4.45066">
        <ele>694</ele>
        <time>2020-11-10T19:36:36+01:00</time>
      </trkpt>
      <trkpt lat="44.76616" lon="4.45084">
        <ele>695</ele>
        <time>2020-11-10T19:36:41+01:00</time>
      </trkpt>
      <trkpt lat="44.766" lon="4.45103">
        <ele>696</ele>
        <time>2020-11-10T19:36:46+01:00</time>
      </trkpt>
      <trkpt lat="44.76571" lon="4.45117">
        <ele>703</ele>
        <time>2020-11-10T19:36:51+01:00</time>
      </trkpt>
      <trkpt lat="44.76559" lon="4.45186">
        <ele>692</ele>
        <time>2020-11-10T19:36:56+01:00</time>
      </trkpt>
      <trkpt lat="44.76546" lon="4.45208">
        <ele>694</ele>
        <time>2020-11-10T19:37:01+01:00</time>
      </trkpt>
      <trkpt lat="44.76498" lon="4.45205">
        <ele>708</ele>
        <time>2020-11-10T19:37:06+01:00</time>
      </trkpt>
      <trkpt lat="44.76482" lon="4.45225">
        <ele>710</ele>
        <time>2020-11-10T19:37:11+01:00</time>
      </trkpt>
      <trkpt lat="44.76488" lon="4.45246">
        <ele>707</ele>
        <time>2020-11-10T19:37:16+01:00</time>
      </trkpt>
      <trkpt lat="44.76511" lon="4.45268">
        <ele>705</ele>
        <time>2020-11-10T19:37:21+01:00</time>
      </trkpt>
      <trkpt lat="44.76521" lon="4.45306">
        <ele>711</ele>
        <time>2020-11-10T19:37:26+01:00</time>
      </trkpt>
      <trkpt lat="44.76548" lon="4.45333">
        <ele>708</ele>
        <time>2020-11-10T19:37:31+01:00</time>
      </trkpt>
      <trkpt lat="44.76568" lon="4.45355">
        <ele>702</ele>
        <time>2020-11-10T19:37:36+01:00</time>
      </trkpt>
      <trkpt lat="44.76575" lon="4.45378">
        <ele>701</ele>
        <time>2020-11-10T19:37:41+01:00</time>
      </trkpt>
      <trkpt lat="44.76571" lon="4.45405">
        <ele>704</ele>
        <time>2020-11-10T19:37:46+01:00</time>
      </trkpt>
      <trkpt lat="44.76554" lon="4.45423">
        <ele>713</ele>
        <time>2020-11-10T19:37:51+01:00</time>
      </trkpt>
      <trkpt lat="44.7649" lon="4.4552">
        <ele>742</ele>
        <time>2020-11-10T19:37:56+01:00</time>
      </trkpt>
      <trkpt lat="44.76483" lon="4.45539">
        <ele>747</ele>
        <time>2020-11-10T19:38:01+01:00</time>
      </trkpt>
      <trkpt lat="44.76476" lon="4.45563">
        <ele>754</ele>
        <time>2020-11-10T19:38:06+01:00</time>
      </trkpt>
      <trkpt lat="44.76483" lon="4.45581">
        <ele>755</ele>
        <time>2020-11-10T19:38:11+01:00</time>
      </trkpt>
      <trkpt lat="44.76505" lon="4.45591">
        <ele>753</ele>
        <time>2020-11-10T19:38:16+01:00</time>
      </trkpt>
      <trkpt lat="44.76522" lon="4.45623">
        <ele>760</ele>
        <time>2020-11-10T19:38:21+01:00</time>
      </trkpt>
      <trkpt lat="44.76538" lon="4.45656">
        <ele>768</ele>
        <time>2020-11-10T19:38:26+01:00</time>
      </trkpt>
      <trkpt lat="44.76547" lon="4.45686">
        <ele>776</ele>
        <time>2020-11-10T19:38:31+01:00</time>
      </trkpt>
      <trkpt lat="44.76563" lon="4.45671">
        <ele>768</ele>
        <time>2020-11-10T19:38:36+01:00</time>
      </trkpt>
      <trkpt lat="44.76614" lon="4.45684">
        <ele>762</ele>
        <time>2020-11-10T19:38:41+01:00</time>
      </trkpt>
      <trkpt lat="44.76642" lon="4.45716">
        <ele>763</ele>
        <time>2020-11-10T19:38:46+01:00</time>
      </trkpt>
      <trkpt lat="44.76653" lon="4.4575">
        <ele>767</ele>
        <time>2020-11-10T19:38:51+01:00</time>
      </trkpt>
      <trkpt lat="44.76654" lon="4.45796">
        <ele>772</ele>
        <time>2020-11-10T19:38:56+01:00</time>
      </trkpt>
      <trkpt lat="44.76671" lon="4.45875">
        <ele>773</ele>
        <time>2020-11-10T19:39:01+01:00</time>
      </trkpt>
      <trkpt lat="44.7668" lon="4.459">
        <ele>771</ele>
        <time>2020-11-10T19:39:06+01:00</time>
      </trkpt>
      <trkpt lat="44.76663" lon="4.45973">
        <ele>774</ele>
        <time>2020-11-10T19:39:11+01:00</time>
      </trkpt>
      <trkpt lat="44.7666" lon="4.46004">
        <ele>773</ele>
        <time>2020-11-10T19:39:16+01:00</time>
      </trkpt>
      <trkpt lat="44.7665" lon="4.46035">
        <ele>774</ele>
        <time>2020-11-10T19:39:21+01:00</time>
      </trkpt>
      <trkpt lat="44.76639" lon="4.4607">
        <ele>776</ele>
        <time>2020-11-10T19:39:26+01:00</time>
      </trkpt>
      <trkpt lat="44.76643" lon="4.46141">
        <ele>769</ele>
        <time>2020-11-10T19:39:31+01:00</time>
      </trkpt>
      <trkpt lat="44.76619" lon="4.46203">
        <ele>777</ele>
        <time>2020-11-10T19:39:36+01:00</time>
      </trkpt>
      <trkpt lat="44.7662" lon="4.46258">
        <ele>776</ele>
        <time>2020-11-10T19:39:41+01:00</time>
      </trkpt>
      <trkpt lat="44.76639" lon="4.46293">
        <ele>772</ele>
        <time>2020-11-10T19:39:46+01:00</time>
      </trkpt>
      <trkpt lat="44.76671" lon="4.46353">
        <ele>768</ele>
        <time>2020-11-10T19:39:51+01:00</time>
      </trkpt>
      <trkpt lat="44.76668" lon="4.46377">
        <ele>773</ele>
        <time>2020-11-10T19:39:56+01:00</time>
      </trkpt>
      <trkpt lat="44.76634" lon="4.46311">
        <ele>776</ele>
        <time>2020-11-10T19:40:01+01:00</time>
      </trkpt>
      <trkpt lat="44.76606" lon="4.46285">
        <ele>784</ele>
        <time>2020-11-10T19:40:06+01:00</time>
      </trkpt>
      <trkpt lat="44.7659" lon="4.46221">
        <ele>788</ele>
        <time>2020-11-10T19:40:11+01:00</time>
      </trkpt>
      <trkpt lat="44.7661" lon="4.46127">
        <ele>785</ele>
        <time>2020-11-10T19:40:16+01:00</time>
      </trkpt>
      <trkpt lat="44.76603" lon="4.46051">
        <ele>794</ele>
        <time>2020-11-10T19:40:21+01:00</time>
      </trkpt>
      <trkpt lat="44.76617" lon="4.45936">
        <ele>797</ele>
        <time>2020-11-10T19:40:26+01:00</time>
      </trkpt>
      <trkpt lat="44.76585" lon="4.45809">
        <ele>800</ele>
        <time>2020-11-10T19:40:31+01:00</time>
      </trkpt>
      <trkpt lat="44.76574" lon="4.45772">
        <ele>794</ele>
        <time>2020-11-10T19:40:36+01:00</time>
      </trkpt>
      <trkpt lat="44.76545" lon="4.45768">
        <ele>800</ele>
        <time>2020-11-10T19:40:41+01:00</time>
      </trkpt>
      <trkpt lat="44.76512" lon="4.45781">
        <ele>811</ele>
        <time>2020-11-10T19:40:46+01:00</time>
      </trkpt>
      <trkpt lat="44.76478" lon="4.45706">
        <ele>796</ele>
        <time>2020-11-10T19:40:51+01:00</time>
      </trkpt>
      <trkpt lat="44.7645" lon="4.45698">
        <ele>799</ele>
        <time>2020-11-10T19:40:56+01:00</time>
      </trkpt>
      <trkpt lat="44.76418" lon="4.45696">
        <ele>804</ele>
        <time>2020-11-10T19:41:01+01:00</time>
      </trkpt>
      <trkpt lat="44.76353" lon="4.45699">
        <ele>815</ele>
        <time>2020-11-10T19:41:06+01:00</time>
      </trkpt>
      <trkpt lat="44.76319" lon="4.45696">
        <ele>822</ele>
        <time>2020-11-10T19:41:11+01:00</time>
      </trkpt>
      <trkpt lat="44.76304" lon="4.45649">
        <ele>820</ele>
        <time>2020-11-10T19:41:16+01:00</time>
      </trkpt>
      <trkpt lat="44.76298" lon="4.45501">
        <ele>810</ele>
        <time>2020-11-10T19:41:21+01:00</time>
      </trkpt>
      <trkpt lat="44.76284" lon="4.45474">
        <ele>811</ele>
        <time>2020-11-10T19:41:26+01:00</time>
      </trkpt>
      <trkpt lat="44.76276" lon="4.45546">
        <ele>822</ele>
        <time>2020-11-10T19:41:31+01:00</time>
      </trkpt>
      <trkpt lat="44.76256" lon="4.45602">
        <ele>837</ele>
        <time>2020-11-10T19:41:36+01:00</time>
      </trkpt>
      <trkpt lat="44.76249" lon="4.45637">
        <ele>843</ele>
        <time>2020-11-10T19:41:41+01:00</time>
      </trkpt>
      <trkpt lat="44.76247" lon="4.45679">
        <ele>847</ele>
        <time>2020-11-10T19:41:46+01:00</time>
      </trkpt>
      <trkpt lat="44.76248" lon="4.45753">
        <ele>855</ele>
        <time>2020-11-10T19:41:51+01:00</time>
      </trkpt>
      <trkpt lat="44.76253" lon="4.45816">
        <ele>863</ele>
        <time>2020-11-10T19:41:56+01:00</time>
      </trkpt>
      <trkpt lat="44.76268" lon="4.45854">
        <ele>867</ele>
        <time>2020-11-10T19:42:01+01:00</time>
      </trkpt>
      <trkpt lat="44.76277" lon="4.45884">
        <ele>870</ele>
        <time>2020-11-10T19:42:06+01:00</time>
      </trkpt>
      <trkpt lat="44.76272" lon="4.45913">
        <ele>874</ele>
        <time>2020-11-10T19:42:11+01:00</time>
      </trkpt>
      <trkpt lat="44.76273" lon="4.45935">
        <ele>873</ele>
        <time>2020-11-10T19:42:16+01:00</time>
      </trkpt>
      <trkpt lat="44.76288" lon="4.45971">
        <ele>872</ele>
        <time>2020-11-10T19:42:21+01:00</time>
      </trkpt>
      <trkpt lat="44.76311" lon="4.45988">
        <ele>872</ele>
        <time>2020-11-10T19:42:26+01:00</time>
      </trkpt>
      <trkpt lat="44.76319" lon="4.45997">
        <ele>872</ele>
        <time>2020-11-10T19:42:31+01:00</time>
      </trkpt>
      <trkpt lat="44.76334" lon="4.46025">
        <ele>871</ele>
        <time>2020-11-10T19:42:36+01:00</time>
      </trkpt>
      <trkpt lat="44.76345" lon="4.46059">
        <ele>869</ele>
        <time>2020-11-10T19:42:41+01:00</time>
      </trkpt>
      <trkpt lat="44.76351" lon="4.46081">
        <ele>868</ele>
        <time>2020-11-10T19:42:46+01:00</time>
      </trkpt>
      <trkpt lat="44.76352" lon="4.46083">
        <ele>868</ele>
        <time>2020-11-10T19:42:51+01:00</time>
      </trkpt>
      <trkpt lat="44.76366" lon="4.46104">
        <ele>864</ele>
        <time>2020-11-10T19:42:56+01:00</time>
      </trkpt>
      <trkpt lat="44.76384" lon="4.46108">
        <ele>862</ele>
        <time>2020-11-10T19:43:01+01:00</time>
      </trkpt>
      <trkpt lat="44.76407" lon="4.46106">
        <ele>860</ele>
        <time>2020-11-10T19:43:06+01:00</time>
      </trkpt>
      <trkpt lat="44.76406" lon="4.46063">
        <ele>862</ele>
        <time>2020-11-10T19:43:11+01:00</time>
      </trkpt>
      <trkpt lat="44.76418" lon="4.46031">
        <ele>860</ele>
        <time>2020-11-10T19:43:16+01:00</time>
      </trkpt>
      <trkpt lat="44.76418" lon="4.46027">
        <ele>860</ele>
        <time>2020-11-10T19:43:21+01:00</time>
      </trkpt>
      <trkpt lat="44.76434" lon="4.46082">
        <ele>855</ele>
        <time>2020-11-10T19:43:26+01:00</time>
      </trkpt>
      <trkpt lat="44.76441" lon="4.46127">
        <ele>850</ele>
        <time>2020-11-10T19:43:31+01:00</time>
      </trkpt>
      <trkpt lat="44.76436" lon="4.46241">
        <ele>847</ele>
        <time>2020-11-10T19:43:36+01:00</time>
      </trkpt>
      <trkpt lat="44.76436" lon="4.46323">
        <ele>846</ele>
        <time>2020-11-10T19:43:41+01:00</time>
      </trkpt>
      <trkpt lat="44.76461" lon="4.46405">
        <ele>845</ele>
        <time>2020-11-10T19:43:46+01:00</time>
      </trkpt>
      <trkpt lat="44.7649" lon="4.4648">
        <ele>852</ele>
        <time>2020-11-10T19:43:51+01:00</time>
      </trkpt>
      <trkpt lat="44.7652" lon="4.46525">
        <ele>854</ele>
        <time>2020-11-10T19:43:56+01:00</time>
      </trkpt>
      <trkpt lat="44.76514" lon="4.46578">
        <ele>858</ele>
        <time>2020-11-10T19:44:01+01:00</time>
      </trkpt>
      <trkpt lat="44.76535" lon="4.46619">
        <ele>859</ele>
        <time>2020-11-10T19:44:06+01:00</time>
      </trkpt>
      <trkpt lat="44.76561" lon="4.46668">
        <ele>863</ele>
        <time>2020-11-10T19:44:11+01:00</time>
      </trkpt>
      <trkpt lat="44.76578" lon="4.4669">
        <ele>864</ele>
        <time>2020-11-10T19:44:16+01:00</time>
      </trkpt>
      <trkpt lat="44.76595" lon="4.46733">
        <ele>861</ele>
        <time>2020-11-10T19:44:21+01:00</time>
      </trkpt>
      <trkpt lat="44.76613" lon="4.46741">
        <ele>856</ele>
        <time>2020-11-10T19:44:26+01:00</time>
      </trkpt>
      <trkpt lat="44.76633" lon="4.46741">
        <ele>850</ele>
        <time>2020-11-10T19:44:31+01:00</time>
      </trkpt>
      <trkpt lat="44.76656" lon="4.46733">
        <ele>843</ele>
        <time>2020-11-10T19:44:36+01:00</time>
      </trkpt>
      <trkpt lat="44.76688" lon="4.4669">
        <ele>828</ele>
        <time>2020-11-10T19:44:41+01:00</time>
      </trkpt>
      <trkpt lat="44.767" lon="4.46707">
        <ele>823</ele>
        <time>2020-11-10T19:44:46+01:00</time>
      </trkpt>
      <trkpt lat="44.76723" lon="4.46679">
        <ele>810</ele>
        <time>2020-11-10T19:44:51+01:00</time>
      </trkpt>
      <trkpt lat="44.76753" lon="4.46718">
        <ele>799</ele>
        <time>2020-11-10T19:44:56+01:00</time>
      </trkpt>
      <trkpt lat="44.76777" lon="4.46709">
        <ele>787</ele>
        <time>2020-11-10T19:45:01+01:00</time>
      </trkpt>
      <trkpt lat="44.768" lon="4.46739">
        <ele>779</ele>
        <time>2020-11-10T19:45:06+01:00</time>
      </trkpt>
      <trkpt lat="44.76829" lon="4.46765">
        <ele>769</ele>
        <time>2020-11-10T19:45:11+01:00</time>
      </trkpt>
      <trkpt lat="44.76866" lon="4.46771">
        <ele>760</ele>
        <time>2020-11-10T19:45:16+01:00</time>
      </trkpt>
      <trkpt lat="44.76851" lon="4.46739">
        <ele>760</ele>
        <time>2020-11-10T19:45:21+01:00</time>
      </trkpt>
      <trkpt lat="44.76835" lon="4.46694">
        <ele>758</ele>
        <time>2020-11-10T19:45:26+01:00</time>
      </trkpt>
      <trkpt lat="44.76835" lon="4.46671">
        <ele>755</ele>
        <time>2020-11-10T19:45:31+01:00</time>
      </trkpt>
      <trkpt lat="44.76863" lon="4.46718">
        <ele>753</ele>
        <time>2020-11-10T19:45:36+01:00</time>
      </trkpt>
      <trkpt lat="44.76893" lon="4.46753">
        <ele>752</ele>
        <time>2020-11-10T19:45:41+01:00</time>
      </trkpt>
      <trkpt lat="44.76939" lon="4.46746">
        <ele>741</ele>
        <time>2020-11-10T19:45:46+01:00</time>
      </trkpt>
      <trkpt lat="44.76976" lon="4.46739">
        <ele>733</ele>
        <time>2020-11-10T19:45:51+01:00</time>
      </trkpt>
      <trkpt lat="44.77014" lon="4.46767">
        <ele>728</ele>
        <time>2020-11-10T19:45:56+01:00</time>
      </trkpt>
      <trkpt lat="44.7702" lon="4.46784">
        <ele>725</ele>
        <time>2020-11-10T19:46:01+01:00</time>
      </trkpt>
      <trkpt lat="44.7702" lon="4.46819">
        <ele>725</ele>
        <time>2020-11-10T19:46:06+01:00</time>
      </trkpt>
      <trkpt lat="44.76982" lon="4.46879">
        <ele>730</ele>
        <time>2020-11-10T19:46:11+01:00</time>
      </trkpt>
      <trkpt lat="44.76947" lon="4.46913">
        <ele>733</ele>
        <time>2020-11-10T19:46:16+01:00</time>
      </trkpt>
      <trkpt lat="44.76937" lon="4.46973">
        <ele>730</ele>
        <time>2020-11-10T19:46:21+01:00</time>
      </trkpt>
      <trkpt lat="44.76928" lon="4.47003">
        <ele>729</ele>
        <time>2020-11-10T19:46:26+01:00</time>
      </trkpt>
      <trkpt lat="44.76901" lon="4.47029">
        <ele>731</ele>
        <time>2020-11-10T19:46:31+01:00</time>
      </trkpt>
      <trkpt lat="44.76904" lon="4.47074">
        <ele>726</ele>
        <time>2020-11-10T19:46:36+01:00</time>
      </trkpt>
      <trkpt lat="44.76907" lon="4.47095">
        <ele>724</ele>
        <time>2020-11-10T19:46:41+01:00</time>
      </trkpt>
      <trkpt lat="44.7691" lon="4.47121">
        <ele>722</ele>
        <time>2020-11-10T19:46:46+01:00</time>
      </trkpt>
      <trkpt lat="44.76866" lon="4.47117">
        <ele>721</ele>
        <time>2020-11-10T19:46:51+01:00</time>
      </trkpt>
      <trkpt lat="44.7682" lon="4.47121">
        <ele>721</ele>
        <time>2020-11-10T19:46:56+01:00</time>
      </trkpt>
      <trkpt lat="44.76819" lon="4.47147">
        <ele>716</ele>
        <time>2020-11-10T19:47:01+01:00</time>
      </trkpt>
      <trkpt lat="44.76809" lon="4.4716">
        <ele>715</ele>
        <time>2020-11-10T19:47:06+01:00</time>
      </trkpt>
      <trkpt lat="44.76813" lon="4.47196">
        <ele>706</ele>
        <time>2020-11-10T19:47:11+01:00</time>
      </trkpt>
      <trkpt lat="44.76806" lon="4.4722">
        <ele>701</ele>
        <time>2020-11-10T19:47:16+01:00</time>
      </trkpt>
      <trkpt lat="44.76767" lon="4.47246">
        <ele>698</ele>
        <time>2020-11-10T19:47:21+01:00</time>
      </trkpt>
      <trkpt lat="44.7673" lon="4.47259">
        <ele>704</ele>
        <time>2020-11-10T19:47:26+01:00</time>
      </trkpt>
      <trkpt lat="44.76709" lon="4.47289">
        <ele>711</ele>
        <time>2020-11-10T19:47:31+01:00</time>
      </trkpt>
      <trkpt lat="44.7673" lon="4.47332">
        <ele>701</ele>
        <time>2020-11-10T19:47:36+01:00</time>
      </trkpt>
      <trkpt lat="44.76736" lon="4.47293">
        <ele>700</ele>
        <time>2020-11-10T19:47:41+01:00</time>
      </trkpt>
      <trkpt lat="44.76758" lon="4.47398">
        <ele>692</ele>
        <time>2020-11-10T19:47:46+01:00</time>
      </trkpt>
      <trkpt lat="44.76758" lon="4.47458">
        <ele>691</ele>
        <time>2020-11-10T19:47:51+01:00</time>
      </trkpt>
      <trkpt lat="44.7677" lon="4.47501">
        <ele>685</ele>
        <time>2020-11-10T19:47:56+01:00</time>
      </trkpt>
      <trkpt lat="44.7675" lon="4.47537">
        <ele>676</ele>
        <time>2020-11-10T19:48:01+01:00</time>
      </trkpt>
      <trkpt lat="44.7672" lon="4.4755">
        <ele>689</ele>
        <time>2020-11-10T19:48:06+01:00</time>
      </trkpt>
      <trkpt lat="44.767" lon="4.47572">
        <ele>689</ele>
        <time>2020-11-10T19:48:11+01:00</time>
      </trkpt>
      <trkpt lat="44.76787" lon="4.47583">
        <ele>666</ele>
        <time>2020-11-10T19:48:16+01:00</time>
      </trkpt>
      <trkpt lat="44.76811" lon="4.47548">
        <ele>664</ele>
        <time>2020-11-10T19:48:21+01:00</time>
      </trkpt>
      <trkpt lat="44.7682" lon="4.47501">
        <ele>665</ele>
        <time>2020-11-10T19:48:26+01:00</time>
      </trkpt>
      <trkpt lat="44.76806" lon="4.47452">
        <ele>672</ele>
        <time>2020-11-10T19:48:31+01:00</time>
      </trkpt>
      <trkpt lat="44.76804" lon="4.47402">
        <ele>674</ele>
        <time>2020-11-10T19:48:36+01:00</time>
      </trkpt>
      <trkpt lat="44.7682" lon="4.47444">
        <ele>667</ele>
        <time>2020-11-10T19:48:41+01:00</time>
      </trkpt>
      <trkpt lat="44.76848" lon="4.475">
        <ele>657</ele>
        <time>2020-11-10T19:48:46+01:00</time>
      </trkpt>
      <trkpt lat="44.76858" lon="4.47542">
        <ele>650</ele>
        <time>2020-11-10T19:48:51+01:00</time>
      </trkpt>
      <trkpt lat="44.76858" lon="4.47583">
        <ele>646</ele>
        <time>2020-11-10T19:48:56+01:00</time>
      </trkpt>
      <trkpt lat="44.76859" lon="4.47613">
        <ele>643</ele>
        <time>2020-11-10T19:49:01+01:00</time>
      </trkpt>
      <trkpt lat="44.7688" lon="4.47598">
        <ele>637</ele>
        <time>2020-11-10T19:49:06+01:00</time>
      </trkpt>
      <trkpt lat="44.76886" lon="4.47612">
        <ele>634</ele>
        <time>2020-11-10T19:49:11+01:00</time>
      </trkpt>
      <trkpt lat="44.76866" lon="4.47651">
        <ele>636</ele>
        <time>2020-11-10T19:49:16+01:00</time>
      </trkpt>
      <trkpt lat="44.76842" lon="4.47675">
        <ele>642</ele>
        <time>2020-11-10T19:49:21+01:00</time>
      </trkpt>
      <trkpt lat="44.76855" lon="4.47701">
        <ele>641</ele>
        <time>2020-11-10T19:49:26+01:00</time>
      </trkpt>
      <trkpt lat="44.76854" lon="4.47736">
        <ele>645</ele>
        <time>2020-11-10T19:49:31+01:00</time>
      </trkpt>
      <trkpt lat="44.76887" lon="4.47741">
        <ele>635</ele>
        <time>2020-11-10T19:49:36+01:00</time>
      </trkpt>
      <trkpt lat="44.76934" lon="4.47755">
        <ele>624</ele>
        <time>2020-11-10T19:49:41+01:00</time>
      </trkpt>
      <trkpt lat="44.7695" lon="4.47816">
        <ele>636</ele>
        <time>2020-11-10T19:49:46+01:00</time>
      </trkpt>
      <trkpt lat="44.76959" lon="4.47851">
        <ele>642</ele>
        <time>2020-11-10T19:49:51+01:00</time>
      </trkpt>
      <trkpt lat="44.76973" lon="4.47853">
        <ele>639</ele>
        <time>2020-11-10T19:49:56+01:00</time>
      </trkpt>
      <trkpt lat="44.77007" lon="4.47829">
        <ele>626</ele>
        <time>2020-11-10T19:50:01+01:00</time>
      </trkpt>
      <trkpt lat="44.7704" lon="4.47831">
        <ele>621</ele>
        <time>2020-11-10T19:50:06+01:00</time>
      </trkpt>
      <trkpt lat="44.77083" lon="4.47859">
        <ele>624</ele>
        <time>2020-11-10T19:50:11+01:00</time>
      </trkpt>
      <trkpt lat="44.77161" lon="4.47844">
        <ele>612</ele>
        <time>2020-11-10T19:50:16+01:00</time>
      </trkpt>
      <trkpt lat="44.77189" lon="4.47838">
        <ele>610</ele>
        <time>2020-11-10T19:50:21+01:00</time>
      </trkpt>
      <trkpt lat="44.7722" lon="4.47834">
        <ele>610</ele>
        <time>2020-11-10T19:50:26+01:00</time>
      </trkpt>
      <trkpt lat="44.77282" lon="4.47838">
        <ele>609</ele>
        <time>2020-11-10T19:50:31+01:00</time>
      </trkpt>
      <trkpt lat="44.77333" lon="4.47826">
        <ele>599</ele>
        <time>2020-11-10T19:50:36+01:00</time>
      </trkpt>
      <trkpt lat="44.77383" lon="4.47827">
        <ele>590</ele>
        <time>2020-11-10T19:50:41+01:00</time>
      </trkpt>
      <trkpt lat="44.7741" lon="4.47864">
        <ele>592</ele>
        <time>2020-11-10T19:50:46+01:00</time>
      </trkpt>
      <trkpt lat="44.77462" lon="4.47909">
        <ele>584</ele>
        <time>2020-11-10T19:50:51+01:00</time>
      </trkpt>
      <trkpt lat="44.77496" lon="4.47924">
        <ele>575</ele>
        <time>2020-11-10T19:50:56+01:00</time>
      </trkpt>
      <trkpt lat="44.77515" lon="4.47958">
        <ele>573</ele>
        <time>2020-11-10T19:51:01+01:00</time>
      </trkpt>
      <trkpt lat="44.7752" lon="4.47997">
        <ele>576</ele>
        <time>2020-11-10T19:51:06+01:00</time>
      </trkpt>
      <trkpt lat="44.77551" lon="4.48037">
        <ele>568</ele>
        <time>2020-11-10T19:51:11+01:00</time>
      </trkpt>
      <trkpt lat="44.77564" lon="4.48055">
        <ele>565</ele>
        <time>2020-11-10T19:51:16+01:00</time>
      </trkpt>
      <trkpt lat="44.77564" lon="4.48085">
        <ele>567</ele>
        <time>2020-11-10T19:51:21+01:00</time>
      </trkpt>
      <trkpt lat="44.77555" lon="4.48128">
        <ele>567</ele>
        <time>2020-11-10T19:51:26+01:00</time>
      </trkpt>
      <trkpt lat="44.77535" lon="4.4816">
        <ele>569</ele>
        <time>2020-11-10T19:51:31+01:00</time>
      </trkpt>
      <trkpt lat="44.77529" lon="4.48169">
        <ele>569</ele>
        <time>2020-11-10T19:51:36+01:00</time>
      </trkpt>
      <trkpt lat="44.77555" lon="4.48178">
        <ele>562</ele>
        <time>2020-11-10T19:51:41+01:00</time>
      </trkpt>
      <trkpt lat="44.77578" lon="4.48157">
        <ele>560</ele>
        <time>2020-11-10T19:51:46+01:00</time>
      </trkpt>
      <trkpt lat="44.77595" lon="4.48112">
        <ele>559</ele>
        <time>2020-11-10T19:51:51+01:00</time>
      </trkpt>
      <trkpt lat="44.77599" lon="4.48056">
        <ele>555</ele>
        <time>2020-11-10T19:51:56+01:00</time>
      </trkpt>
      <trkpt lat="44.77589" lon="4.48026">
        <ele>554</ele>
        <time>2020-11-10T19:52:01+01:00</time>
      </trkpt>
      <trkpt lat="44.77565" lon="4.47998">
        <ele>560</ele>
        <time>2020-11-10T19:52:06+01:00</time>
      </trkpt>
      <trkpt lat="44.77557" lon="4.47926">
        <ele>552</ele>
        <time>2020-11-10T19:52:11+01:00</time>
      </trkpt>
      <trkpt lat="44.77541" lon="4.4787">
        <ele>548</ele>
        <time>2020-11-10T19:52:16+01:00</time>
      </trkpt>
      <trkpt lat="44.77508" lon="4.4783">
        <ele>553</ele>
        <time>2020-11-10T19:52:21+01:00</time>
      </trkpt>
      <trkpt lat="44.77493" lon="4.47783">
        <ele>550</ele>
        <time>2020-11-10T19:52:26+01:00</time>
      </trkpt>
      <trkpt lat="44.77488" lon="4.47729">
        <ele>541</ele>
        <time>2020-11-10T19:52:31+01:00</time>
      </trkpt>
      <trkpt lat="44.77445" lon="4.47681">
        <ele>541</ele>
        <time>2020-11-10T19:52:36+01:00</time>
      </trkpt>
      <trkpt lat="44.7741" lon="4.47668">
        <ele>545</ele>
        <time>2020-11-10T19:52:41+01:00</time>
      </trkpt>
      <trkpt lat="44.77362" lon="4.47654">
        <ele>548</ele>
        <time>2020-11-10T19:52:46+01:00</time>
      </trkpt>
      <trkpt lat="44.77353" lon="4.47618">
        <ele>551</ele>
        <time>2020-11-10T19:52:51+01:00</time>
      </trkpt>
      <trkpt lat="44.77403" lon="4.47592">
        <ele>540</ele>
        <time>2020-11-10T19:52:56+01:00</time>
      </trkpt>
      <trkpt lat="44.77428" lon="4.47563">
        <ele>536</ele>
        <time>2020-11-10T19:53:01+01:00</time>
      </trkpt>
      <trkpt lat="44.77456" lon="4.47525">
        <ele>531</ele>
        <time>2020-11-10T19:53:06+01:00</time>
      </trkpt>
      <trkpt lat="44.77467" lon="4.47482">
        <ele>531</ele>
        <time>2020-11-10T19:53:11+01:00</time>
      </trkpt>
      <trkpt lat="44.77465" lon="4.4743">
        <ele>539</ele>
        <time>2020-11-10T19:53:16+01:00</time>
      </trkpt>
      <trkpt lat="44.77477" lon="4.474">
        <ele>539</ele>
        <time>2020-11-10T19:53:21+01:00</time>
      </trkpt>
      <trkpt lat="44.7749" lon="4.47376">
        <ele>538</ele>
        <time>2020-11-10T19:53:26+01:00</time>
      </trkpt>
      <trkpt lat="44.77504" lon="4.47351">
        <ele>537</ele>
        <time>2020-11-10T19:53:31+01:00</time>
      </trkpt>
      <trkpt lat="44.77512" lon="4.47354">
        <ele>536</ele>
        <time>2020-11-10T19:53:36+01:00</time>
      </trkpt>
      <trkpt lat="44.77528" lon="4.47329">
        <ele>537</ele>
        <time>2020-11-10T19:53:41+01:00</time>
      </trkpt>
      <trkpt lat="44.77544" lon="4.47307">
        <ele>536</ele>
        <time>2020-11-10T19:53:46+01:00</time>
      </trkpt>
      <trkpt lat="44.77557" lon="4.47283">
        <ele>534</ele>
        <time>2020-11-10T19:53:51+01:00</time>
      </trkpt>
      <trkpt lat="44.77571" lon="4.47236">
        <ele>530</ele>
        <time>2020-11-10T19:53:56+01:00</time>
      </trkpt>
      <trkpt lat="44.77557" lon="4.47196">
        <ele>535</ele>
        <time>2020-11-10T19:54:01+01:00</time>
      </trkpt>
      <trkpt lat="44.77535" lon="4.47108">
        <ele>540</ele>
        <time>2020-11-10T19:54:06+01:00</time>
      </trkpt>
      <trkpt lat="44.77527" lon="4.47062">
        <ele>540</ele>
        <time>2020-11-10T19:54:11+01:00</time>
      </trkpt>
      <trkpt lat="44.77494" lon="4.4702">
        <ele>544</ele>
        <time>2020-11-10T19:54:16+01:00</time>
      </trkpt>
      <trkpt lat="44.77481" lon="4.46982">
        <ele>548</ele>
        <time>2020-11-10T19:54:21+01:00</time>
      </trkpt>
      <trkpt lat="44.77471" lon="4.46952">
        <ele>553</ele>
        <time>2020-11-10T19:54:26+01:00</time>
      </trkpt>
      <trkpt lat="44.77462" lon="4.4691">
        <ele>557</ele>
        <time>2020-11-10T19:54:31+01:00</time>
      </trkpt>
      <trkpt lat="44.7745" lon="4.4687">
        <ele>562</ele>
        <time>2020-11-10T19:54:36+01:00</time>
      </trkpt>
      <trkpt lat="44.77427" lon="4.46829">
        <ele>569</ele>
        <time>2020-11-10T19:54:41+01:00</time>
      </trkpt>
      <trkpt lat="44.77404" lon="4.46802">
        <ele>574</ele>
        <time>2020-11-10T19:54:46+01:00</time>
      </trkpt>
      <trkpt lat="44.77369" lon="4.46786">
        <ele>585</ele>
        <time>2020-11-10T19:54:51+01:00</time>
      </trkpt>
      <trkpt lat="44.7734" lon="4.46784">
        <ele>596</ele>
        <time>2020-11-10T19:54:56+01:00</time>
      </trkpt>
      <trkpt lat="44.77375" lon="4.46821">
        <ele>586</ele>
        <time>2020-11-10T19:55:01+01:00</time>
      </trkpt>
      <trkpt lat="44.77391" lon="4.46863">
        <ele>585</ele>
        <time>2020-11-10T19:55:06+01:00</time>
      </trkpt>
      <trkpt lat="44.77394" lon="4.46928">
        <ele>589</ele>
        <time>2020-11-10T19:55:11+01:00</time>
      </trkpt>
      <trkpt lat="44.77386" lon="4.46977">
        <ele>594</ele>
        <time>2020-11-10T19:55:16+01:00</time>
      </trkpt>
      <trkpt lat="44.77375" lon="4.47004">
        <ele>600</ele>
        <time>2020-11-10T19:55:21+01:00</time>
      </trkpt>
      <trkpt lat="44.77372" lon="4.4711">
        <ele>611</ele>
        <time>2020-11-10T19:55:26+01:00</time>
      </trkpt>
      <trkpt lat="44.77366" lon="4.47183">
        <ele>616</ele>
        <time>2020-11-10T19:55:31+01:00</time>
      </trkpt>
      <trkpt lat="44.77313" lon="4.47259">
        <ele>631</ele>
        <time>2020-11-10T19:55:36+01:00</time>
      </trkpt>
      <trkpt lat="44.7724" lon="4.47304">
        <ele>648</ele>
        <time>2020-11-10T19:55:41+01:00</time>
      </trkpt>
      <trkpt lat="44.77263" lon="4.4722">
        <ele>655</ele>
        <time>2020-11-10T19:55:46+01:00</time>
      </trkpt>
      <trkpt lat="44.77267" lon="4.47145">
        <ele>659</ele>
        <time>2020-11-10T19:55:51+01:00</time>
      </trkpt>
      <trkpt lat="44.77242" lon="4.47058">
        <ele>669</ele>
        <time>2020-11-10T19:55:56+01:00</time>
      </trkpt>
      <trkpt lat="44.77215" lon="4.46986">
        <ele>672</ele>
        <time>2020-11-10T19:56:01+01:00</time>
      </trkpt>
      <trkpt lat="44.77173" lon="4.46967">
        <ele>681</ele>
        <time>2020-11-10T19:56:06+01:00</time>
      </trkpt>
      <trkpt lat="44.77123" lon="4.46958">
        <ele>693</ele>
        <time>2020-11-10T19:56:11+01:00</time>
      </trkpt>
      <trkpt lat="44.77057" lon="4.46944">
        <ele>708</ele>
        <time>2020-11-10T19:56:16+01:00</time>
      </trkpt>
      <trkpt lat="44.77066" lon="4.46912">
        <ele>704</ele>
        <time>2020-11-10T19:56:21+01:00</time>
      </trkpt>
      <trkpt lat="44.7707" lon="4.46827">
        <ele>708</ele>
        <time>2020-11-10T19:56:26+01:00</time>
      </trkpt>
      <trkpt lat="44.77075" lon="4.46774">
        <ele>709</ele>
        <time>2020-11-10T19:56:31+01:00</time>
      </trkpt>
      <trkpt lat="44.77082" lon="4.46745">
        <ele>706</ele>
        <time>2020-11-10T19:56:36+01:00</time>
      </trkpt>
      <trkpt lat="44.77047" lon="4.46684">
        <ele>705</ele>
        <time>2020-11-10T19:56:41+01:00</time>
      </trkpt>
      <trkpt lat="44.77019" lon="4.46643">
        <ele>701</ele>
        <time>2020-11-10T19:56:46+01:00</time>
      </trkpt>
      <trkpt lat="44.76987" lon="4.46623">
        <ele>702</ele>
        <time>2020-11-10T19:56:51+01:00</time>
      </trkpt>
      <trkpt lat="44.7695" lon="4.46615">
        <ele>707</ele>
        <time>2020-11-10T19:56:56+01:00</time>
      </trkpt>
      <trkpt lat="44.76936" lon="4.46617">
        <ele>711</ele>
        <time>2020-11-10T19:57:01+01:00</time>
      </trkpt>
      <trkpt lat="44.76925" lon="4.46604">
        <ele>710</ele>
        <time>2020-11-10T19:57:06+01:00</time>
      </trkpt>
      <trkpt lat="44.76899" lon="4.46487">
        <ele>707</ele>
        <time>2020-11-10T19:57:11+01:00</time>
      </trkpt>
      <trkpt lat="44.76896" lon="4.46432">
        <ele>702</ele>
        <time>2020-11-10T19:57:16+01:00</time>
      </trkpt>
      <trkpt lat="44.76831" lon="4.46368">
        <ele>705</ele>
        <time>2020-11-10T19:57:21+01:00</time>
      </trkpt>
      <trkpt lat="44.76793" lon="4.46336">
        <ele>711</ele>
        <time>2020-11-10T19:57:26+01:00</time>
      </trkpt>
      <trkpt lat="44.76788" lon="4.4624">
        <ele>699</ele>
        <time>2020-11-10T19:57:31+01:00</time>
      </trkpt>
      <trkpt lat="44.76827" lon="4.46181">
        <ele>680</ele>
        <time>2020-11-10T19:57:36+01:00</time>
      </trkpt>
      <trkpt lat="44.76827" lon="4.46147">
        <ele>682</ele>
        <time>2020-11-10T19:57:41+01:00</time>
      </trkpt>
      <trkpt lat="44.76819" lon="4.46119">
        <ele>689</ele>
        <time>2020-11-10T19:57:46+01:00</time>
      </trkpt>
      <trkpt lat="44.76862" lon="4.46078">
        <ele>679</ele>
        <time>2020-11-10T19:57:51+01:00</time>
      </trkpt>
      <trkpt lat="44.76877" lon="4.46004">
        <ele>683</ele>
        <time>2020-11-10T19:57:56+01:00</time>
      </trkpt>
      <trkpt lat="44.76849" lon="4.45945">
        <ele>696</ele>
        <time>2020-11-10T19:58:01+01:00</time>
      </trkpt>
      <trkpt lat="44.76856" lon="4.45857">
        <ele>687</ele>
        <time>2020-11-10T19:58:06+01:00</time>
      </trkpt>
      <trkpt lat="44.76857" lon="4.45799">
        <ele>679</ele>
        <time>2020-11-10T19:58:11+01:00</time>
      </trkpt>
      <trkpt lat="44.7685" lon="4.45722">
        <ele>671</ele>
        <time>2020-11-10T19:58:16+01:00</time>
      </trkpt>
      <trkpt lat="44.76841" lon="4.4569">
        <ele>671</ele>
        <time>2020-11-10T19:58:21+01:00</time>
      </trkpt>
      <trkpt lat="44.76845" lon="4.45647">
        <ele>662</ele>
        <time>2020-11-10T19:58:26+01:00</time>
      </trkpt>
      <trkpt lat="44.76809" lon="4.45598">
        <ele>669</ele>
        <time>2020-11-10T19:58:31+01:00</time>
      </trkpt>
      <trkpt lat="44.76777" lon="4.45529">
        <ele>663</ele>
        <time>2020-11-10T19:58:36+01:00</time>
      </trkpt>
      <trkpt lat="44.76776" lon="4.45496">
        <ele>653</ele>
        <time>2020-11-10T19:58:41+01:00</time>
      </trkpt>
      <trkpt lat="44.76733" lon="4.45439">
        <ele>649</ele>
        <time>2020-11-10T19:58:46+01:00</time>
      </trkpt>
      <trkpt lat="44.76736" lon="4.45379">
        <ele>638</ele>
        <time>2020-11-10T19:58:51+01:00</time>
      </trkpt>
      <trkpt lat="44.76735" lon="4.45365">
        <ele>637</ele>
        <time>2020-11-10T19:58:56+01:00</time>
      </trkpt>
      <trkpt lat="44.76743" lon="4.45346">
        <ele>632</ele>
        <time>2020-11-10T19:59:01+01:00</time>
      </trkpt>
      <trkpt lat="44.76769" lon="4.45324">
        <ele>622</ele>
        <time>2020-11-10T19:59:06+01:00</time>
      </trkpt>
      <trkpt lat="44.76774" lon="4.45316">
        <ele>620</ele>
        <time>2020-11-10T19:59:11+01:00</time>
      </trkpt>
      <trkpt lat="44.76771" lon="4.45274">
        <ele>623</ele>
        <time>2020-11-10T19:59:16+01:00</time>
      </trkpt>
      <trkpt lat="44.76771" lon="4.45253">
        <ele>624</ele>
        <time>2020-11-10T19:59:21+01:00</time>
      </trkpt>
      <trkpt lat="44.76779" lon="4.45244">
        <ele>623</ele>
        <time>2020-11-10T19:59:26+01:00</time>
      </trkpt>
      <trkpt lat="44.76801" lon="4.45242">
        <ele>617</ele>
        <time>2020-11-10T19:59:31+01:00</time>
      </trkpt>
      <trkpt lat="44.76838" lon="4.45216">
        <ele>614</ele>
        <time>2020-11-10T19:59:36+01:00</time>
      </trkpt>
      <trkpt lat="44.76848" lon="4.45201">
        <ele>616</ele>
        <time>2020-11-10T19:59:41+01:00</time>
      </trkpt>
      <trkpt lat="44.76876" lon="4.45191">
        <ele>614</ele>
        <time>2020-11-10T19:59:46+01:00</time>
      </trkpt>
      <trkpt lat="44.76907" lon="4.4517">
        <ele>610</ele>
        <time>2020-11-10T19:59:51+01:00</time>
      </trkpt>
      <trkpt lat="44.76917" lon="4.45152">
        <ele>609</ele>
        <time>2020-11-10T19:59:56+01:00</time>
      </trkpt>
      <trkpt lat="44.76924" lon="4.45126">
        <ele>610</ele>
        <time>2020-11-10T20:00:01+01:00</time>
      </trkpt>
      <trkpt lat="44.76926" lon="4.45089">
        <ele>611</ele>
        <time>2020-11-10T20:00:06+01:00</time>
      </trkpt>
      <trkpt lat="44.76917" lon="4.45041">
        <ele>612</ele>
        <time>2020-11-10T20:00:11+01:00</time>
      </trkpt>
      <trkpt lat="44.76903" lon="4.44986">
        <ele>619</ele>
        <time>2020-11-10T20:00:16+01:00</time>
      </trkpt>
      <trkpt lat="44.76895" lon="4.44965">
        <ele>624</ele>
        <time>2020-11-10T20:00:21+01:00</time>
      </trkpt>
      <trkpt lat="44.76894" lon="4.44936">
        <ele>626</ele>
        <time>2020-11-10T20:00:26+01:00</time>
      </trkpt>
      <trkpt lat="44.76883" lon="4.44887">
        <ele>629</ele>
        <time>2020-11-10T20:00:31+01:00</time>
      </trkpt>
      <trkpt lat="44.76874" lon="4.44874">
        <ele>632</ele>
        <time>2020-11-10T20:00:36+01:00</time>
      </trkpt>
      <trkpt lat="44.76862" lon="4.44861">
        <ele>635</ele>
        <time>2020-11-10T20:00:41+01:00</time>
      </trkpt>
      <trkpt lat="44.76841" lon="4.44846">
        <ele>640</ele>
        <time>2020-11-10T20:00:46+01:00</time>
      </trkpt>
      <trkpt lat="44.76834" lon="4.44832">
        <ele>640</ele>
        <time>2020-11-10T20:00:51+01:00</time>
      </trkpt>
      <trkpt lat="44.7683" lon="4.4481">
        <ele>639</ele>
        <time>2020-11-10T20:00:56+01:00</time>
      </trkpt>
      <trkpt lat="44.76821" lon="4.44781">
        <ele>639</ele>
        <time>2020-11-10T20:01:01+01:00</time>
      </trkpt>
      <trkpt lat="44.76809" lon="4.44742">
        <ele>639</ele>
        <time>2020-11-10T20:01:06+01:00</time>
      </trkpt>
      <trkpt lat="44.768" lon="4.44717">
        <ele>643</ele>
        <time>2020-11-10T20:01:11+01:00</time>
      </trkpt>
      <trkpt lat="44.76803" lon="4.44702">
        <ele>642</ele>
        <time>2020-11-10T20:01:16+01:00</time>
      </trkpt>
      <trkpt lat="44.76796" lon="4.44695">
        <ele>644</ele>
        <time>2020-11-10T20:01:21+01:00</time>
      </trkpt>
      <trkpt lat="44.76815" lon="4.44679">
        <ele>641</ele>
        <time>2020-11-10T20:01:26+01:00</time>
      </trkpt>
      <trkpt lat="44.76832" lon="4.44672">
        <ele>640</ele>
        <time>2020-11-10T20:01:31+01:00</time>
      </trkpt>
      <trkpt lat="44.76842" lon="4.44659">
        <ele>640</ele>
        <time>2020-11-10T20:01:36+01:00</time>
      </trkpt>
      <trkpt lat="44.76841" lon="4.44642">
        <ele>644</ele>
        <time>2020-11-10T20:01:41+01:00</time>
      </trkpt>
      <trkpt lat="44.76858" lon="4.44651">
        <ele>639</ele>
        <time>2020-11-10T20:01:46+01:00</time>
      </trkpt>
      <trkpt lat="44.76878" lon="4.44624">
        <ele>640</ele>
        <time>2020-11-10T20:01:51+01:00</time>
      </trkpt>
      <trkpt lat="44.7688" lon="4.44563">
        <ele>648</ele>
        <time>2020-11-10T20:01:56+01:00</time>
      </trkpt>
      <trkpt lat="44.76877" lon="4.44553">
        <ele>650</ele>
        <time>2020-11-10T20:02:01+01:00</time>
      </trkpt>
      <trkpt lat="44.7686" lon="4.44548">
        <ele>655</ele>
        <time>2020-11-10T20:02:06+01:00</time>
      </trkpt>
      <trkpt lat="44.76843" lon="4.44548">
        <ele>659</ele>
        <time>2020-11-10T20:02:11+01:00</time>
      </trkpt>
      <trkpt lat="44.76842" lon="4.44545">
        <ele>660</ele>
        <time>2020-11-10T20:02:16+01:00</time>
      </trkpt>
      <trkpt lat="44.76834" lon="4.44541">
        <ele>663</ele>
        <time>2020-11-10T20:02:21+01:00</time>
      </trkpt>
      <trkpt lat="44.76834" lon="4.4454">
        <ele>663</ele>
        <time>2020-11-10T20:02:26+01:00</time>
      </trkpt>
      <trkpt lat="44.76825" lon="4.44536">
        <ele>663</ele>
        <time>2020-11-10T20:02:31+01:00</time>
      </trkpt>
      <trkpt lat="44.76824" lon="4.44526">
        <ele>664</ele>
        <time>2020-11-10T20:02:36+01:00</time>
      </trkpt>
      <trkpt lat="44.76819" lon="4.44524">
        <ele>664</ele>
        <time>2020-11-10T20:02:41+01:00</time>
      </trkpt>
      <trkpt lat="44.76819" lon="4.44524">
        <ele>664</ele>
        <time>2020-11-10T20:02:46+01:00</time>
      </trkpt>
    </trkseg>
  </trk>
</gpx>